sensor_id;sensor_type;location;lat;lon;timestamp;pressure;altitude;pressure_sealevel;temperature;humidity
1832;BME280;1680;48.106;11.708;2023-07-31T00:02:18;95680.59;;;18.16;91.97
1832;BME280;1680;48.106;11.708;2023-07-31T00:04:45;95692.25;;;18.15;91.93
1832;BME280;1680;48.106;11.708;2023-07-31T00:07:12;95689.06;;;18.13;92.67
1832;BME280;1680;48.106;11.708;2023-07-31T00:09:42;95677.38;;;18.14;92.54
1832;BME280;1680;48.106;11.708;2023-07-31T00:12:09;95682.69;;;18.14;91.87
1832;BME280;1680;48.106;11.708;2023-07-31T00:14:36;95683.22;;;18.01;92.94
1832;BME280;1680;48.106;11.708;2023-07-31T00:17:04;95661.44;;;17.84;92.98
1832;BME280;1680;48.106;11.708;2023-07-31T00:19:31;95681.06;;;17.83;95.12
1832;BME280;1680;48.106;11.708;2023-07-31T00:21:58;95681.34;;;17.87;94.71
1832;BME280;1680;48.106;11.708;2023-07-31T00:24:26;95655.84;;;17.71;94.51
1832;BME280;1680;48.106;11.708;2023-07-31T00:26:54;95674.19;;;17.82;94.77
1832;BME280;1680;48.106;11.708;2023-07-31T00:29:21;95668.31;;;17.65;97.20
1832;BME280;1680;48.106;11.708;2023-07-31T00:31:48;95651.56;;;17.45;97.19
1832;BME280;1680;48.106;11.708;2023-07-31T00:34:16;95679.69;;;17.56;98.87
1832;BME280;1680;48.106;11.708;2023-07-31T00:36:43;95675.69;;;17.49;99.50
1832;BME280;1680;48.106;11.708;2023-07-31T00:39:10;95671.44;;;17.48;99.32
1832;BME280;1680;48.106;11.708;2023-07-31T00:41:37;95672.50;;;17.47;99.87
1832;BME280;1680;48.106;11.708;2023-07-31T00:44:06;95666.84;;;17.28;100.00
1832;BME280;1680;48.106;11.708;2023-07-31T00:46:33;95673.50;;;17.31;100.00
1832;BME280;1680;48.106;11.708;2023-07-31T00:49:00;95671.94;;;17.35;100.00
1832;BME280;1680;48.106;11.708;2023-07-31T00:51:27;95670.00;;;17.20;100.00
1832;BME280;1680;48.106;11.708;2023-07-31T00:53:55;95641.59;;;17.06;100.00
1832;BME280;1680;48.106;11.708;2023-07-31T00:56:23;95663.13;;;17.19;100.00
1832;BME280;1680;48.106;11.708;2023-07-31T00:58:51;95668.69;;;17.23;100.00
1832;BME280;1680;48.106;11.708;2023-07-31T01:01:19;95660.22;;;17.26;100.00
1832;BME280;1680;48.106;11.708;2023-07-31T01:03:47;95665.75;;;17.19;100.00
1832;BME280;1680;48.106;11.708;2023-07-31T01:06:24;95654.63;;;17.17;100.00
1832;BME280;1680;48.106;11.708;2023-07-31T01:09:00;95654.91;;;17.26;100.00
1832;BME280;1680;48.106;11.708;2023-07-31T01:11:30;95647.22;;;17.24;100.00
1832;BME280;1680;48.106;11.708;2023-07-31T01:13:58;95650.41;;;17.21;100.00
1832;BME280;1680;48.106;11.708;2023-07-31T01:16:27;95646.97;;;17.26;100.00
1832;BME280;1680;48.106;11.708;2023-07-31T01:18:54;95657.28;;;17.27;100.00
1832;BME280;1680;48.106;11.708;2023-07-31T01:21:48;95647.47;;;17.23;100.00
1832;BME280;1680;48.106;11.708;2023-07-31T01:24:23;95648.53;;;17.22;100.00
1832;BME280;1680;48.106;11.708;2023-07-31T01:26:59;95642.19;;;17.28;100.00
1832;BME280;1680;48.106;11.708;2023-07-31T01:29:34;95637.16;;;17.21;100.00
1832;BME280;1680;48.106;11.708;2023-07-31T01:32:06;95633.97;;;17.24;100.00
1832;BME280;1680;48.106;11.708;2023-07-31T01:34:35;95640.34;;;17.28;100.00
1832;BME280;1680;48.106;11.708;2023-07-31T01:37:04;95621.25;;;17.26;100.00
1832;BME280;1680;48.106;11.708;2023-07-31T01:39:31;95626.59;;;17.41;100.00
1832;BME280;1680;48.106;11.708;2023-07-31T01:41:59;95631.66;;;17.48;100.00
1832;BME280;1680;48.106;11.708;2023-07-31T01:44:27;95629.00;;;17.48;100.00
1832;BME280;1680;48.106;11.708;2023-07-31T01:46:54;95594.19;;;17.19;100.00
1832;BME280;1680;48.106;11.708;2023-07-31T01:49:21;95605.88;;;17.28;100.00
1832;BME280;1680;48.106;11.708;2023-07-31T01:51:48;95621.59;;;17.40;100.00
1832;BME280;1680;48.106;11.708;2023-07-31T01:54:15;95626.31;;;17.33;100.00
1832;BME280;1680;48.106;11.708;2023-07-31T01:56:43;95617.63;;;17.37;100.00
1832;BME280;1680;48.106;11.708;2023-07-31T01:59:11;95622.63;;;17.39;100.00
1832;BME280;1680;48.106;11.708;2023-07-31T02:01:38;95606.94;;;17.22;100.00
1832;BME280;1680;48.106;11.708;2023-07-31T02:04:05;95625.28;;;17.39;100.00
1832;BME280;1680;48.106;11.708;2023-07-31T02:06:32;95617.84;;;17.36;100.00
1832;BME280;1680;48.106;11.708;2023-07-31T02:09:00;95604.56;;;17.26;100.00
1832;BME280;1680;48.106;11.708;2023-07-31T02:11:27;95622.91;;;17.42;100.00
1832;BME280;1680;48.106;11.708;2023-07-31T02:13:54;95619.19;;;17.38;100.00
1832;BME280;1680;48.106;11.708;2023-07-31T02:16:23;95610.97;;;17.35;100.00
1832;BME280;1680;48.106;11.708;2023-07-31T02:18:50;95614.66;;;17.34;100.00
1832;BME280;1680;48.106;11.708;2023-07-31T02:21:17;95611.47;;;17.32;100.00
1832;BME280;1680;48.106;11.708;2023-07-31T02:23:44;95595.25;;;17.23;100.00
1832;BME280;1680;48.106;11.708;2023-07-31T02:26:12;95595.03;;;17.35;100.00
1832;BME280;1680;48.106;11.708;2023-07-31T02:28:39;95588.69;;;17.36;100.00
1832;BME280;1680;48.106;11.708;2023-07-31T02:31:08;95590.78;;;17.29;100.00
1832;BME280;1680;48.106;11.708;2023-07-31T02:33:36;95590.75;;;17.19;100.00
1832;BME280;1680;48.106;11.708;2023-07-31T02:36:04;95589.16;;;17.23;100.00
1832;BME280;1680;48.106;11.708;2023-07-31T02:38:31;95590.75;;;17.24;100.00
1832;BME280;1680;48.106;11.708;2023-07-31T02:40:58;95590.75;;;17.24;100.00
1832;BME280;1680;48.106;11.708;2023-07-31T02:43:25;95576.94;;;17.12;100.00
1832;BME280;1680;48.106;11.708;2023-07-31T02:45:52;95593.44;;;17.29;100.00
1832;BME280;1680;48.106;11.708;2023-07-31T02:48:20;95577.47;;;17.19;100.00
1832;BME280;1680;48.106;11.708;2023-07-31T02:50:48;95581.72;;;17.10;100.00
1832;BME280;1680;48.106;11.708;2023-07-31T02:53:15;95570.03;;;17.06;100.00
1832;BME280;1680;48.106;11.708;2023-07-31T02:55:42;95572.66;;;16.96;100.00
1832;BME280;1680;48.106;11.708;2023-07-31T02:58:09;95560.91;;;16.72;100.00
1832;BME280;1680;48.106;11.708;2023-07-31T03:00:42;95552.91;;;16.57;100.00
1832;BME280;1680;48.106;11.708;2023-07-31T03:03:09;95574.69;;;16.74;100.00
1832;BME280;1680;48.106;11.708;2023-07-31T03:05:36;95573.63;;;16.70;100.00
1832;BME280;1680;48.106;11.708;2023-07-31T03:08:05;95532.72;;;16.41;100.00
1832;BME280;1680;48.106;11.708;2023-07-31T03:10:32;95556.38;;;16.62;100.00
1832;BME280;1680;48.106;11.708;2023-07-31T03:12:59;95563.78;;;16.60;100.00
1832;BME280;1680;48.106;11.708;2023-07-31T03:15:27;95571.19;;;16.58;100.00
1832;BME280;1680;48.106;11.708;2023-07-31T03:17:54;95562.97;;;16.60;100.00
1832;BME280;1680;48.106;11.708;2023-07-31T03:20:21;95568.50;;;16.53;100.00
1832;BME280;1680;48.106;11.708;2023-07-31T03:22:48;95543.56;;;16.40;100.00
1832;BME280;1680;48.106;11.708;2023-07-31T03:25:17;95563.72;;;16.51;100.00
1832;BME280;1680;48.106;11.708;2023-07-31T03:27:44;95562.91;;;16.40;100.00
1832;BME280;1680;48.106;11.708;2023-07-31T03:30:11;95574.50;;;16.34;100.00
1832;BME280;1680;48.106;11.708;2023-07-31T03:32:38;95558.00;;;16.22;100.00
1832;BME280;1680;48.106;11.708;2023-07-31T03:35:06;95541.19;;;15.97;100.00
1832;BME280;1680;48.106;11.708;2023-07-31T03:37:33;95574.34;;;16.14;100.00
1832;BME280;1680;48.106;11.708;2023-07-31T03:40:00;95577.50;;;16.11;100.00
1832;BME280;1680;48.106;11.708;2023-07-31T03:42:28;95576.97;;;16.09;100.00
1832;BME280;1680;48.106;11.708;2023-07-31T03:44:56;95580.44;;;16.15;100.00
1832;BME280;1680;48.106;11.708;2023-07-31T03:47:23;95567.38;;;15.98;100.00
1832;BME280;1680;48.106;11.708;2023-07-31T03:49:50;95579.63;;;16.09;100.00
1832;BME280;1680;48.106;11.708;2023-07-31T03:52:17;95581.75;;;16.12;100.00
1832;BME280;1680;48.106;11.708;2023-07-31T03:54:44;95579.13;;;16.17;100.00
1832;BME280;1680;48.106;11.708;2023-07-31T03:57:11;95582.84;;;16.16;100.00
1832;BME280;1680;48.106;11.708;2023-07-31T03:59:40;95589.16;;;16.15;100.00
1832;BME280;1680;48.106;11.708;2023-07-31T04:02:07;95562.13;;;16.03;100.00
1832;BME280;1680;48.106;11.708;2023-07-31T04:04:34;95577.75;;;16.10;100.00
1832;BME280;1680;48.106;11.708;2023-07-31T04:07:01;95576.44;;;16.12;100.00
1832;BME280;1680;48.106;11.708;2023-07-31T04:09:28;95576.97;;;16.09;100.00
1832;BME280;1680;48.106;11.708;2023-07-31T04:11:55;95574.66;;;16.18;100.00
1832;BME280;1680;48.106;11.708;2023-07-31T04:14:23;95576.97;;;16.09;100.00
1832;BME280;1680;48.106;11.708;2023-07-31T04:16:51;95562.63;;;16.00;100.00
1832;BME280;1680;48.106;11.708;2023-07-31T04:19:18;95578.38;;;16.22;100.00
1832;BME280;1680;48.106;11.708;2023-07-31T04:21:45;95577.91;;;16.30;100.00
1832;BME280;1680;48.106;11.708;2023-07-31T04:24:13;95575.50;;;16.28;100.00
1832;BME280;1680;48.106;11.708;2023-07-31T04:26:40;95580.84;;;16.33;100.00
1832;BME280;1680;48.106;11.708;2023-07-31T04:29:07;95576.13;;;16.40;100.00
1832;BME280;1680;48.106;11.708;2023-07-31T04:31:34;95558.91;;;16.33;100.00
1832;BME280;1680;48.106;11.708;2023-07-31T04:34:03;95563.97;;;16.39;100.00
1832;BME280;1680;48.106;11.708;2023-07-31T04:36:30;95577.00;;;16.55;100.00
1832;BME280;1680;48.106;11.708;2023-07-31T04:38:57;95559.78;;;16.53;100.00
1832;BME280;1680;48.106;11.708;2023-07-31T04:41:24;95572.56;;;16.66;100.00
1832;BME280;1680;48.106;11.708;2023-07-31T04:43:51;95559.81;;;16.63;100.00
1832;BME280;1680;48.106;11.708;2023-07-31T04:46:18;95560.91;;;16.72;100.00
1832;BME280;1680;48.106;11.708;2023-07-31T04:48:46;95567.53;;;16.69;100.00
1832;BME280;1680;48.106;11.708;2023-07-31T04:51:14;95564.63;;;16.76;100.00
1832;BME280;1680;48.106;11.708;2023-07-31T04:53:41;95531.47;;;16.58;100.00
1832;BME280;1680;48.106;11.708;2023-07-31T04:56:08;95561.47;;;16.79;100.00
1832;BME280;1680;48.106;11.708;2023-07-31T04:58:35;95555.91;;;16.75;100.00
1832;BME280;1680;48.106;11.708;2023-07-31T05:01:03;95564.94;;;16.84;100.00
1832;BME280;1680;48.106;11.708;2023-07-31T05:03:30;95560.16;;;16.81;100.00
1832;BME280;1680;48.106;11.708;2023-07-31T05:05:57;95545.56;;;16.74;100.00
1832;BME280;1680;48.106;11.708;2023-07-31T05:08:25;95557.50;;;16.76;100.00
1832;BME280;1680;48.106;11.708;2023-07-31T05:10:52;95551.91;;;16.73;100.00
1832;BME280;1680;48.106;11.708;2023-07-31T05:13:20;95562.56;;;16.83;100.00
1832;BME280;1680;48.106;11.708;2023-07-31T05:15:47;95561.50;;;16.84;100.00
1832;BME280;1680;48.106;11.708;2023-07-31T05:18:14;95558.84;;;16.84;100.00
1832;BME280;1680;48.106;11.708;2023-07-31T05:20:41;95560.47;;;16.95;100.00
1832;BME280;1680;48.106;11.708;2023-07-31T05:23:09;95539.25;;;16.85;100.00
1832;BME280;1680;48.106;11.708;2023-07-31T05:25:37;95554.63;;;16.93;100.00
1832;BME280;1680;48.106;11.708;2023-07-31T05:28:04;95566.84;;;17.04;100.00
1832;BME280;1680;48.106;11.708;2023-07-31T05:30:31;95566.63;;;17.15;100.00
1832;BME280;1680;48.106;11.708;2023-07-31T05:32:59;95559.00;;;17.34;100.00
1832;BME280;1680;48.106;11.708;2023-07-31T05:35:26;95549.47;;;17.38;100.00
1832;BME280;1680;48.106;11.708;2023-07-31T05:37:53;95561.13;;;17.61;100.00
1832;BME280;1680;48.106;11.708;2023-07-31T05:40:20;95561.16;;;17.81;100.00
1832;BME280;1680;48.106;11.708;2023-07-31T05:42:49;95557.69;;;17.96;100.00
1832;BME280;1680;48.106;11.708;2023-07-31T05:45:16;95555.28;;;18.09;100.00
1832;BME280;1680;48.106;11.708;2023-07-31T05:47:43;95556.34;;;18.23;100.00
1832;BME280;1680;48.106;11.708;2023-07-31T05:50:10;95546.25;;;18.25;100.00
1832;BME280;1680;48.106;11.708;2023-07-31T05:52:38;95548.34;;;18.43;100.00
1832;BME280;1680;48.106;11.708;2023-07-31T05:55:06;95550.47;;;18.46;100.00
1832;BME280;1680;48.106;11.708;2023-07-31T05:57:33;95521.53;;;18.40;100.00
1832;BME280;1680;48.106;11.708;2023-07-31T06:00:03;95550.66;;;18.64;99.67
1832;BME280;1680;48.106;11.708;2023-07-31T06:02:31;95547.44;;;18.72;99.16
1832;BME280;1680;48.106;11.708;2023-07-31T06:05:02;95558.78;;;18.93;100.00
1832;BME280;1680;48.106;11.708;2023-07-31T06:07:29;95552.34;;;18.99;100.00
1832;BME280;1680;48.106;11.708;2023-07-31T06:09:56;95549.91;;;19.07;99.96
1832;BME280;1680;48.106;11.708;2023-07-31T06:12:28;95550.69;;;19.18;99.58
1832;BME280;1680;48.106;11.708;2023-07-31T06:14:55;95539.44;;;19.31;98.26
1832;BME280;1680;48.106;11.708;2023-07-31T06:17:24;95541.78;;;19.37;96.93
1832;BME280;1680;48.106;11.708;2023-07-31T06:19:52;95543.03;;;19.54;95.48
1832;BME280;1680;48.106;11.708;2023-07-31T06:22:19;95547.63;;;19.77;92.39
1832;BME280;1680;48.106;11.708;2023-07-31T06:24:46;95554.50;;;19.83;89.08
1832;BME280;1680;48.106;11.708;2023-07-31T06:27:13;95547.59;;;19.82;88.82
1832;BME280;1680;48.106;11.708;2023-07-31T06:29:41;95556.00;;;19.94;87.53
1832;BME280;1680;48.106;11.708;2023-07-31T06:32:09;95561.66;;;19.88;87.01
1832;BME280;1680;48.106;11.708;2023-07-31T06:34:37;95584.69;;;20.02;84.23
1832;BME280;1680;48.106;11.708;2023-07-31T06:37:04;95559.22;;;19.91;84.35
1832;BME280;1680;48.106;11.708;2023-07-31T06:39:32;95566.25;;;20.11;83.94
1832;BME280;1680;48.106;11.708;2023-07-31T06:41:59;95562.28;;;20.08;84.77
1832;BME280;1680;48.106;11.708;2023-07-31T06:44:26;95539.53;;;19.87;85.62
1832;BME280;1680;48.106;11.708;2023-07-31T06:46:53;95568.16;;;20.05;85.84
1832;BME280;1680;48.106;11.708;2023-07-31T06:49:20;95566.88;;;20.03;85.38
1832;BME280;1680;48.106;11.708;2023-07-31T06:51:49;95529.69;;;19.88;84.36
1832;BME280;1680;48.106;11.708;2023-07-31T06:54:16;95518.81;;;19.84;83.04
1832;BME280;1680;48.106;11.708;2023-07-31T06:56:43;95557.19;;;20.12;82.74
1832;BME280;1680;48.106;11.708;2023-07-31T06:59:10;95563.78;;;20.19;81.31
1832;BME280;1680;48.106;11.708;2023-07-31T07:01:37;95561.41;;;20.18;83.52
1832;BME280;1680;48.106;11.708;2023-07-31T07:04:04;95556.16;;;20.36;82.52
1832;BME280;1680;48.106;11.708;2023-07-31T07:06:31;95541.09;;;20.50;83.35
1832;BME280;1680;48.106;11.708;2023-07-31T07:09:00;95545.81;;;20.58;84.45
1832;BME280;1680;48.106;11.708;2023-07-31T07:11:27;95529.81;;;20.58;84.86
1832;BME280;1680;48.106;11.708;2023-07-31T07:13:54;95528.22;;;20.57;82.60
1832;BME280;1680;48.106;11.708;2023-07-31T07:16:21;95547.84;;;20.66;81.20
1832;BME280;1680;48.106;11.708;2023-07-31T07:18:48;95542.38;;;20.76;80.75
1832;BME280;1680;48.106;11.708;2023-07-31T07:21:15;95547.06;;;20.65;81.83
1832;BME280;1680;48.106;11.708;2023-07-31T07:23:43;95545.81;;;20.58;79.91
1832;BME280;1680;48.106;11.708;2023-07-31T07:26:12;95545.69;;;20.68;80.15
1832;BME280;1680;48.106;11.708;2023-07-31T07:28:39;95548.28;;;20.73;79.69
1832;BME280;1680;48.106;11.708;2023-07-31T07:31:06;95548.72;;;20.85;78.12
1832;BME280;1680;48.106;11.708;2023-07-31T07:33:33;95518.47;;;20.71;78.35
1832;BME280;1680;48.106;11.708;2023-07-31T07:36:00;95548.16;;;20.88;78.29
1832;BME280;1680;48.106;11.708;2023-07-31T07:38:28;95532.41;;;20.86;78.00
1832;BME280;1680;48.106;11.708;2023-07-31T07:40:55;95551.47;;;20.75;76.71
1832;BME280;1680;48.106;11.708;2023-07-31T07:43:24;95550.44;;;20.71;77.27
1832;BME280;1680;48.106;11.708;2023-07-31T07:45:51;95542.38;;;20.76;76.88
1832;BME280;1680;48.106;11.708;2023-07-31T07:48:18;95544.94;;;20.62;75.45
1832;BME280;1680;48.106;11.708;2023-07-31T07:50:45;95524.53;;;20.53;76.33
1832;BME280;1680;48.106;11.708;2023-07-31T07:53:12;95541.66;;;20.94;76.93
1832;BME280;1680;48.106;11.708;2023-07-31T07:55:40;95538.72;;;21.14;78.20
1832;BME280;1680;48.106;11.708;2023-07-31T07:58:08;95524.09;;;21.30;75.44
1832;BME280;1680;48.106;11.708;2023-07-31T08:00:36;95508.63;;;21.45;75.21
1832;BME280;1680;48.106;11.708;2023-07-31T08:03:03;95514.63;;;21.74;76.09
1832;BME280;1680;48.106;11.708;2023-07-31T08:05:30;95488.03;;;21.82;74.99
1832;BME280;1680;48.106;11.708;2023-07-31T08:07:59;95504.31;;;21.99;73.58
1832;BME280;1680;48.106;11.708;2023-07-31T08:10:26;95503.44;;;22.04;73.73
1832;BME280;1680;48.106;11.708;2023-07-31T08:12:53;95496.28;;;21.99;73.87
1832;BME280;1680;48.106;11.708;2023-07-31T08:15:21;95501.13;;;21.97;73.83
1832;BME280;1680;48.106;11.708;2023-07-31T08:17:50;95503.66;;;22.07;72.99
1832;BME280;1680;48.106;11.708;2023-07-31T08:20:17;95502.56;;;22.08;72.73
1832;BME280;1680;48.106;11.708;2023-07-31T08:22:45;95496.22;;;22.18;73.41
1832;BME280;1680;48.106;11.708;2023-07-31T08:25:12;95510.91;;;22.34;72.62
1832;BME280;1680;48.106;11.708;2023-07-31T08:27:42;95499.00;;;22.26;69.81
1832;BME280;1680;48.106;11.708;2023-07-31T08:30:11;95507.69;;;22.50;71.26
1832;BME280;1680;48.106;11.708;2023-07-31T08:32:38;95506.78;;;22.68;68.08
1832;BME280;1680;48.106;11.708;2023-07-31T08:35:06;95499.84;;;22.80;68.36
1832;BME280;1680;48.106;11.708;2023-07-31T08:37:34;95499.41;;;23.00;66.23
1832;BME280;1680;48.106;11.708;2023-07-31T08:40:01;95495.78;;;23.10;66.02
1832;BME280;1680;48.106;11.708;2023-07-31T08:42:28;95505.38;;;23.11;66.24
1832;BME280;1680;48.106;11.708;2023-07-31T08:44:56;95500.69;;;23.03;63.54
1832;BME280;1680;48.106;11.708;2023-07-31T08:47:24;95496.88;;;22.82;62.54
1832;BME280;1680;48.106;11.708;2023-07-31T08:49:52;95496.69;;;22.65;65.33
1832;BME280;1680;48.106;11.708;2023-07-31T08:52:21;95455.28;;;22.22;65.55
1832;BME280;1680;48.106;11.708;2023-07-31T08:54:48;95506.69;;;22.73;64.54
1832;BME280;1680;48.106;11.708;2023-07-31T08:57:16;95499.66;;;22.50;66.87
1832;BME280;1680;48.106;11.708;2023-07-31T08:59:44;95486.16;;;22.28;65.51
1832;BME280;1680;48.106;11.708;2023-07-31T09:02:13;95499.63;;;22.23;64.43
1832;BME280;1680;48.106;11.708;2023-07-31T09:04:42;95498.19;;;21.99;66.08
1832;BME280;1680;48.106;11.708;2023-07-31T09:07:09;95483.22;;;21.84;67.66
1832;BME280;1680;48.106;11.708;2023-07-31T09:09:40;95488.66;;;21.79;65.33
1832;BME280;1680;48.106;11.708;2023-07-31T09:12:07;95491.66;;;21.91;67.61
1832;BME280;1680;48.106;11.708;2023-07-31T09:14:35;95491.88;;;22.08;66.80
1832;BME280;1680;48.106;11.708;2023-07-31T09:17:02;95492.97;;;22.07;68.95
1832;BME280;1680;48.106;11.708;2023-07-31T09:19:33;95485.09;;;21.97;65.39
1832;BME280;1680;48.106;11.708;2023-07-31T09:22:03;95457.94;;;22.09;65.66
1832;BME280;1680;48.106;11.708;2023-07-31T09:24:31;95489.94;;;22.41;64.91
1832;BME280;1680;48.106;11.708;2023-07-31T09:27:01;95477.50;;;22.36;66.79
1832;BME280;1680;48.106;11.708;2023-07-31T09:29:29;95487.66;;;22.61;63.63
1832;BME280;1680;48.106;11.708;2023-07-31T09:31:56;95464.97;;;22.72;65.37
1832;BME280;1680;48.106;11.708;2023-07-31T09:34:29;95477.53;;;23.12;65.28
1832;BME280;1680;48.106;11.708;2023-07-31T09:36:58;95480.38;;;23.29;67.24
1832;BME280;1680;48.106;11.708;2023-07-31T09:39:29;95479.50;;;23.63;63.88
1832;BME280;1680;48.106;11.708;2023-07-31T09:41:57;95482.78;;;23.39;60.90
1832;BME280;1680;48.106;11.708;2023-07-31T09:44:38;95469.22;;;23.35;61.29
1832;BME280;1680;48.106;11.708;2023-07-31T09:47:07;95472.63;;;23.27;63.67
1832;BME280;1680;48.106;11.708;2023-07-31T09:49:47;95471.09;;;23.35;62.70
1832;BME280;1680;48.106;11.708;2023-07-31T09:52:14;95470.41;;;23.43;62.44
1832;BME280;1680;48.106;11.708;2023-07-31T09:54:41;95467.78;;;23.51;62.17
1832;BME280;1680;48.106;11.708;2023-07-31T09:57:09;95467.09;;;23.46;61.41
1832;BME280;1680;48.106;11.708;2023-07-31T09:59:38;95465.34;;;23.63;60.95
1832;BME280;1680;48.106;11.708;2023-07-31T10:02:09;95444.47;;;23.73;58.93
1832;BME280;1680;48.106;11.708;2023-07-31T10:04:43;95453.47;;;23.77;60.78
1832;BME280;1680;48.106;11.708;2023-07-31T10:07:11;95455.47;;;23.72;59.58
1832;BME280;1680;48.106;11.708;2023-07-31T10:09:40;95439.34;;;23.63;59.10
1832;BME280;1680;48.106;11.708;2023-07-31T10:12:09;95419.59;;;23.51;60.92
1832;BME280;1680;48.106;11.708;2023-07-31T10:14:41;95422.66;;;23.66;59.45
1832;BME280;1680;48.106;11.708;2023-07-31T10:17:08;95417.16;;;23.93;60.01
1832;BME280;1680;48.106;11.708;2023-07-31T10:19:36;95420.22;;;24.00;59.15
1832;BME280;1680;48.106;11.708;2023-07-31T10:22:04;95422.28;;;24.03;56.60
1832;BME280;1680;48.106;11.708;2023-07-31T10:24:32;95402.84;;;23.98;55.57
1832;BME280;1680;48.106;11.708;2023-07-31T10:27:01;95406.31;;;23.98;56.26
1832;BME280;1680;48.106;11.708;2023-07-31T10:29:29;95408.59;;;24.13;57.94
1832;BME280;1680;48.106;11.708;2023-07-31T10:31:58;95406.53;;;24.10;55.65
1832;BME280;1680;48.106;11.708;2023-07-31T10:34:26;95402.69;;;24.33;55.92
1832;BME280;1680;48.106;11.708;2023-07-31T10:37:21;95383.22;;;24.66;56.13
1832;BME280;1680;48.106;11.708;2023-07-31T10:39:59;95397.88;;;24.69;53.58
1832;BME280;1680;48.106;11.708;2023-07-31T10:42:31;95392.88;;;24.93;52.82
1832;BME280;1680;48.106;11.708;2023-07-31T10:45:00;95387.97;;;24.95;53.65
1832;BME280;1680;48.106;11.708;2023-07-31T10:47:29;95381.97;;;25.06;52.31
1832;BME280;1680;48.106;11.708;2023-07-31T10:50:19;95396.69;;;25.09;50.16
1832;BME280;1680;48.106;11.708;2023-07-31T10:52:47;95392.41;;;24.99;49.10
1832;BME280;1680;48.106;11.708;2023-07-31T10:55:32;95370.75;;;24.62;50.34
1832;BME280;1680;48.106;11.708;2023-07-31T10:58:06;95387.66;;;24.79;50.41
1832;BME280;1680;48.106;11.708;2023-07-31T11:00:34;95395.53;;;24.59;51.07
1832;BME280;1680;48.106;11.708;2023-07-31T11:03:05;95390.31;;;24.62;52.85
1832;BME280;1680;48.106;11.708;2023-07-31T11:05:50;95382.34;;;24.32;52.85
1832;BME280;1680;48.106;11.708;2023-07-31T11:08:20;95374.06;;;24.20;51.08
1832;BME280;1680;48.106;11.708;2023-07-31T11:10:50;95381.03;;;24.21;53.19
1832;BME280;1680;48.106;11.708;2023-07-31T11:13:17;95376.97;;;23.93;51.92
1832;BME280;1680;48.106;11.708;2023-07-31T11:15:45;95371.56;;;24.15;54.30
1832;BME280;1680;48.106;11.708;2023-07-31T11:18:13;95363.00;;;24.60;51.05
1832;BME280;1680;48.106;11.708;2023-07-31T11:20:42;95352.94;;;24.91;51.59
1832;BME280;1680;48.106;11.708;2023-07-31T11:23:10;95360.50;;;24.81;51.55
1832;BME280;1680;48.106;11.708;2023-07-31T11:25:38;95372.69;;;24.95;50.22
1832;BME280;1680;48.106;11.708;2023-07-31T11:28:08;95366.81;;;24.93;50.94
1832;BME280;1680;48.106;11.708;2023-07-31T11:30:36;95361.78;;;25.00;51.93
1832;BME280;1680;48.106;11.708;2023-07-31T11:33:05;95363.81;;;25.12;50.10
1832;BME280;1680;48.106;11.708;2023-07-31T11:35:35;95347.09;;;24.98;50.75
1832;BME280;1680;48.106;11.708;2023-07-31T11:38:02;95346.78;;;24.74;49.62
1832;BME280;1680;48.106;11.708;2023-07-31T11:40:29;95352.31;;;25.11;50.38
1832;BME280;1680;48.106;11.708;2023-07-31T11:42:57;95332.25;;;25.09;47.91
1832;BME280;1680;48.106;11.708;2023-07-31T11:45:25;95325.94;;;25.05;47.00
1832;BME280;1680;48.106;11.708;2023-07-31T11:47:54;95320.88;;;25.12;46.63
1832;BME280;1680;48.106;11.708;2023-07-31T11:50:23;95338.91;;;25.20;46.33
1832;BME280;1680;48.106;11.708;2023-07-31T11:52:57;95326.91;;;25.09;46.81
1832;BME280;1680;48.106;11.708;2023-07-31T11:55:26;95321.84;;;25.24;46.15
1832;BME280;1680;48.106;11.708;2023-07-31T11:57:56;95318.19;;;25.29;46.16
1832;BME280;1680;48.106;11.708;2023-07-31T12:00:24;95313.94;;;25.28;43.91
1832;BME280;1680;48.106;11.708;2023-07-31T12:02:52;95304.63;;;25.17;44.17
1832;BME280;1680;48.106;11.708;2023-07-31T12:05:22;95300.47;;;25.45;45.94
1832;BME280;1680;48.106;11.708;2023-07-31T12:07:51;95301.16;;;25.70;46.05
1832;BME280;1680;48.106;11.708;2023-07-31T12:10:27;95273.00;;;25.76;43.91
1832;BME280;1680;48.106;11.708;2023-07-31T12:13:02;95285.13;;;25.99;43.79
1832;BME280;1680;48.106;11.708;2023-07-31T12:15:33;95283.97;;;26.00;44.02
1832;BME280;1680;48.106;11.708;2023-07-31T12:18:04;95277.34;;;25.98;42.48
1832;BME280;1680;48.106;11.708;2023-07-31T12:20:32;95265.03;;;25.97;43.45
1832;BME280;1680;48.106;11.708;2023-07-31T12:23:00;95249.25;;;26.16;45.63
1832;BME280;1680;48.106;11.708;2023-07-31T12:25:33;95270.59;;;26.50;41.45
1832;BME280;1680;48.106;11.708;2023-07-31T12:28:05;95258.16;;;26.08;41.20
1832;BME280;1680;48.106;11.708;2023-07-31T12:30:37;95250.31;;;26.23;42.16
1832;BME280;1680;48.106;11.708;2023-07-31T12:33:06;95263.09;;;26.55;43.62
1832;BME280;1680;48.106;11.708;2023-07-31T12:35:38;95256.72;;;26.59;41.08
1832;BME280;1680;48.106;11.708;2023-07-31T12:38:05;95249.09;;;26.82;42.19
1832;BME280;1680;48.106;11.708;2023-07-31T12:40:36;95246.09;;;27.16;39.09
1832;BME280;1680;48.106;11.708;2023-07-31T12:43:03;95246.59;;;27.30;42.15
1832;BME280;1680;48.106;11.708;2023-07-31T12:45:30;95238.81;;;27.28;40.63
1832;BME280;1680;48.106;11.708;2023-07-31T12:47:58;95238.97;;;27.32;41.42
1832;BME280;1680;48.106;11.708;2023-07-31T12:50:25;95235.34;;;27.16;38.57
1832;BME280;1680;48.106;11.708;2023-07-31T12:52:53;95226.03;;;27.25;38.79
1832;BME280;1680;48.106;11.708;2023-07-31T12:55:20;95190.03;;;26.97;39.43
1832;BME280;1680;48.106;11.708;2023-07-31T12:57:50;95219.97;;;26.96;41.07
1832;BME280;1680;48.106;11.708;2023-07-31T13:00:17;95227.81;;;26.89;40.18
1832;BME280;1680;48.106;11.708;2023-07-31T13:02:44;95196.91;;;26.42;40.69
1832;BME280;1680;48.106;11.708;2023-07-31T13:05:11;95219.22;;;26.34;41.63
1832;BME280;1680;48.106;11.708;2023-07-31T13:07:39;95217.69;;;26.74;42.35
1832;BME280;1680;48.106;11.708;2023-07-31T13:10:07;95220.25;;;27.03;41.83
1832;BME280;1680;48.106;11.708;2023-07-31T13:12:35;95206.72;;;27.11;42.00
1832;BME280;1680;48.106;11.708;2023-07-31T13:15:04;95199.59;;;27.39;39.71